YBCG/OOL METAR and TAF weather

Enter ICAO airport designator
Station Type Date Time Source
YBCG METAR 2024/02/26 17:30 UTC NOAA

YBCG 261730Z AUTO 00000KT 9999 // SCT023 24/23 Q1014 RF00.0/000.2


Station Type Date Time Source
YBCG Decoded METAR 2024/02/26 17:30 UTC NOAA

Coolangatta Airport Aws, Australia (YBCG) 28-10S 153-30E 6M
Feb 26, 2024 - 12:30 PM EST / 2024.02.26 1730 UTC
Wind: Calm:0
Visibility: greater than 7 mile(s):0
Sky conditions: partly cloudy
Temperature: 75 F (24 C)
Dew Point: 73 F (23 C)
Relative Humidity: 94%
Pressure (altimeter): 29.94 in. Hg (1014 hPa)
ob: YBCG 261730Z AUTO 00000KT 9999 // SCT023 24/23 Q1014 RF00.0/000.2
cycle: 17

Station Type Date Time Source
YBCG TAF 2024/02/26 15:51 UTC NOAA